Time,TemperatureF,DewpointF,PressureIn,WindDirection,WindDirectionDegrees,WindSpeedMPH,WindSpeedGustMPH,Humidity,HourlyPrecipIn,Conditions,Clouds,dailyrainin,SoftwareType,DateUTC
2013-02-02 00:00:00,22.0,12.4,30.42,West,279,0.0,0.0,66,0.00,,,0.00,Wunderground v.1.15,2013-02-02 05:00:00,
2013-02-02 00:05:00,21.7,12.1,30.41,West,279,0.0,0.0,66,0.00,,,0.00,Wunderground v.1.15,2013-02-02 05:05:00,
2013-02-02 00:15:00,21.6,13.0,30.42,West,279,0.0,0.0,69,0.00,,,0.00,Wunderground v.1.15,2013-02-02 05:15:00,
2013-02-02 00:20:00,21.5,13.2,30.42,West,279,0.0,0.0,70,0.00,,,0.00,Wunderground v.1.15,2013-02-02 05:20:00,
2013-02-02 00:25:00,21.5,13.2,30.42,West,279,0.0,0.0,70,0.00,,,0.00,Wunderground v.1.15,2013-02-02 05:25:00,
2013-02-02 00:30:00,21.4,13.1,30.42,West,279,0.0,0.0,70,0.00,,,0.00,Wunderground v.1.15,2013-02-02 05:30:00,
2013-02-02 00:35:00,21.3,13.4,30.42,West,279,0.0,0.0,71,0.00,,,0.00,Wunderground v.1.15,2013-02-02 05:35:00,
2013-02-02 00:40:00,21.2,12.9,30.42,West,279,0.0,0.0,70,0.00,,,0.00,Wunderground v.1.15,2013-02-02 05:40:00,
2013-02-02 00:45:00,21.2,13.6,30.42,West,279,0.0,0.0,72,0.00,,,0.00,Wunderground v.1.15,2013-02-02 05:45:00,
2013-02-02 00:50:00,21.2,13.6,30.42,West,279,0.0,0.0,72,0.00,,,0.00,Wunderground v.1.15,2013-02-02 05:50:00,
2013-02-02 00:55:00,21.1,13.5,30.42,West,279,0.0,0.0,72,0.00,,,0.00,Wunderground v.1.15,2013-02-02 05:55:00,
2013-02-02 01:05:00,21.1,12.5,30.42,West,279,0.0,0.0,69,0.00,,,0.00,Wunderground v.1.15,2013-02-02 06:05:00,
2013-02-02 01:15:00,21.2,11.9,30.41,West,279,0.0,0.0,67,0.00,,,0.00,Wunderground v.1.15,2013-02-02 06:15:00,
2013-02-02 01:20:00,21.3,12.0,30.41,West,279,0.0,0.0,67,0.00,,,0.00,Wunderground v.1.15,2013-02-02 06:20:00,
2013-02-02 01:25:00,21.2,11.6,30.41,West,279,0.0,0.0,66,0.00,,,0.00,Wunderground v.1.15,2013-02-02 06:25:00,
2013-02-02 01:30:00,21.2,11.6,30.41,West,279,0.0,0.0,66,0.00,,,0.00,Wunderground v.1.15,2013-02-02 06:30:00,
2013-02-02 01:40:00,21.3,10.7,30.42,West,279,0.0,0.0,63,0.00,,,0.00,Wunderground v.1.15,2013-02-02 06:40:00,
2013-02-02 01:45:00,21.5,10.8,30.41,West,279,0.0,0.0,63,0.00,,,0.00,Wunderground v.1.15,2013-02-02 06:45:00,
2013-02-02 01:50:00,21.6,10.2,30.41,West,279,0.0,0.0,61,0.00,,,0.00,Wunderground v.1.15,2013-02-02 06:50:00,
2013-02-02 01:55:00,21.7,10.7,30.41,West,279,0.0,0.0,62,0.00,,,0.00,Wunderground v.1.15,2013-02-02 06:55:00,
2013-02-02 02:00:00,21.8,10.4,30.41,West,280,0.0,0.0,61,0.00,,,0.00,Wunderground v.1.15,2013-02-02 07:00:00,
2013-02-02 02:05:00,21.9,11.2,30.40,West,280,0.0,0.0,63,0.00,,,0.00,Wunderground v.1.15,2013-02-02 07:05:00,
2013-02-02 02:15:00,22.0,10.6,30.40,West,280,0.0,0.0,61,0.00,,,0.00,Wunderground v.1.15,2013-02-02 07:15:00,
2013-02-02 02:20:00,22.1,10.3,30.40,West,280,0.0,0.0,60,0.00,,,0.00,Wunderground v.1.15,2013-02-02 07:20:00,
2013-02-02 02:30:00,22.2,10.0,30.40,WNW,282,0.0,0.0,59,0.00,,,0.00,Wunderground v.1.15,2013-02-02 07:30:00,
2013-02-02 02:35:00,22.2,10.4,30.40,WNW,282,0.0,0.0,60,0.00,,,0.00,Wunderground v.1.15,2013-02-02 07:35:00,
2013-02-02 02:40:00,22.2,10.0,30.40,WNW,282,0.0,0.0,59,0.00,,,0.00,Wunderground v.1.15,2013-02-02 07:40:00,
2013-02-02 02:50:00,22.2,10.4,30.40,WNW,282,0.0,0.0,60,0.00,,,0.00,Wunderground v.1.15,2013-02-02 07:50:00,
2013-02-02 02:55:00,22.1,10.3,30.40,WNW,282,0.0,0.0,60,0.00,,,0.00,Wunderground v.1.15,2013-02-02 07:55:00,
2013-02-02 03:00:00,22.1,10.3,30.40,WNW,282,0.0,0.0,60,0.00,,,0.00,Wunderground v.1.15,2013-02-02 08:00:00,
2013-02-02 03:05:00,22.0,10.2,30.40,WNW,282,0.0,0.0,60,0.00,,,0.00,Wunderground v.1.15,2013-02-02 08:05:00,
2013-02-02 03:15:00,21.8,11.1,30.41,WNW,282,0.0,0.0,63,0.00,,,0.00,Wunderground v.1.15,2013-02-02 08:15:00,
2013-02-02 03:25:00,21.5,11.2,30.41,WNW,282,0.0,0.0,64,0.00,,,0.00,Wunderground v.1.15,2013-02-02 08:25:00,
2013-02-02 03:30:00,21.3,10.3,30.41,WNW,282,0.0,0.0,62,0.00,,,0.00,Wunderground v.1.15,2013-02-02 08:30:00,
2013-02-02 03:35:00,21.1,10.1,30.41,WNW,282,0.0,0.0,62,0.00,,,0.00,Wunderground v.1.15,2013-02-02 08:35:00,
2013-02-02 03:40:00,21.0,10.4,30.41,WNW,282,0.0,0.0,63,0.00,,,0.00,Wunderground v.1.15,2013-02-02 08:40:00,
2013-02-02 03:45:00,20.8,10.5,30.42,WNW,282,0.0,0.0,64,0.00,,,0.00,Wunderground v.1.15,2013-02-02 08:45:00,
2013-02-02 03:50:00,20.7,10.4,30.41,WNW,282,0.0,0.0,64,0.00,,,0.00,Wunderground v.1.15,2013-02-02 08:50:00,
2013-02-02 04:00:00,20.4,11.5,30.42,WNW,282,0.0,0.0,68,0.00,,,0.00,Wunderground v.1.15,2013-02-02 09:00:00,
2013-02-02 04:05:00,20.2,11.3,30.41,WNW,282,0.0,0.0,68,0.00,,,0.00,Wunderground v.1.15,2013-02-02 09:05:00,
2013-02-02 04:15:00,19.7,11.5,30.41,WNW,282,0.0,0.0,70,0.00,,,0.00,Wunderground v.1.15,2013-02-02 09:15:00,
2013-02-02 04:20:00,19.7,11.5,30.41,WNW,282,0.0,0.0,70,0.00,,,0.00,Wunderground v.1.15,2013-02-02 09:20:00,
2013-02-02 04:30:00,19.4,11.8,30.41,WNW,282,0.0,0.0,72,0.00,,,0.00,Wunderground v.1.15,2013-02-02 09:30:00,
2013-02-02 04:35:00,19.3,12.1,30.41,WNW,282,0.0,0.0,73,0.00,,,0.00,Wunderground v.1.15,2013-02-02 09:35:00,
2013-02-02 04:40:00,19.2,12.0,30.41,WNW,282,0.0,0.0,73,0.00,,,0.00,Wunderground v.1.15,2013-02-02 09:40:00,
2013-02-02 04:45:00,19.1,12.2,30.41,WNW,282,0.0,0.0,74,0.00,,,0.00,Wunderground v.1.15,2013-02-02 09:45:00,
2013-02-02 04:50:00,19.0,12.1,30.42,WNW,282,0.0,0.0,74,0.00,,,0.00,Wunderground v.1.15,2013-02-02 09:50:00,
2013-02-02 05:00:00,18.9,12.3,30.41,WNW,282,0.0,0.0,75,0.00,,,0.00,Wunderground v.1.15,2013-02-02 10:00:00,
2013-02-02 05:05:00,18.8,12.5,30.41,WNW,282,0.0,0.0,76,0.00,,,0.00,Wunderground v.1.15,2013-02-02 10:05:00,
2013-02-02 05:15:00,18.6,12.3,30.41,WNW,282,0.0,0.0,76,0.00,,,0.00,Wunderground v.1.15,2013-02-02 10:15:00,
2013-02-02 05:20:00,18.5,12.5,30.41,WNW,282,0.0,0.0,77,0.00,,,0.00,Wunderground v.1.15,2013-02-02 10:20:00,
2013-02-02 05:25:00,18.4,12.4,30.42,WNW,282,0.0,0.0,77,0.00,,,0.00,Wunderground v.1.15,2013-02-02 10:25:00,
2013-02-02 05:30:00,18.3,12.6,30.42,WNW,282,0.0,0.0,78,0.00,,,0.00,Wunderground v.1.15,2013-02-02 10:30:00,
2013-02-02 05:40:00,18.1,12.7,30.41,WNW,282,0.0,0.0,79,0.00,,,0.00,Wunderground v.1.15,2013-02-02 10:40:00,
2013-02-02 05:45:00,18.0,12.6,30.41,WNW,282,0.0,0.0,79,0.00,,,0.00,Wunderground v.1.15,2013-02-02 10:45:00,
2013-02-02 05:50:00,17.9,12.5,30.41,WNW,282,0.0,0.0,79,0.00,,,0.00,Wunderground v.1.15,2013-02-02 10:50:00,
2013-02-02 05:55:00,17.9,12.5,30.41,WNW,282,0.0,0.0,79,0.00,,,0.00,Wunderground v.1.15,2013-02-02 10:55:00,
2013-02-02 06:00:00,17.7,12.3,30.41,WNW,282,0.0,0.0,79,0.00,,,0.00,Wunderground v.1.15,2013-02-02 11:00:00,
2013-02-02 06:05:00,17.6,12.2,30.42,WNW,282,0.0,0.0,79,0.00,,,0.00,Wunderground v.1.15,2013-02-02 11:05:00,
2013-02-02 06:15:00,17.4,12.3,30.42,WNW,282,0.0,0.0,80,0.00,,,0.00,Wunderground v.1.15,2013-02-02 11:15:00,
2013-02-02 06:20:00,17.2,12.4,30.42,WNW,282,0.0,0.0,81,0.00,,,0.00,Wunderground v.1.15,2013-02-02 11:20:00,
2013-02-02 06:25:00,17.1,12.3,30.41,WNW,282,0.0,0.0,81,0.00,,,0.00,Wunderground v.1.15,2013-02-02 11:25:00,
2013-02-02 06:30:00,16.9,12.1,30.42,WNW,282,0.0,0.0,81,0.00,,,0.00,Wunderground v.1.15,2013-02-02 11:30:00,
2013-02-02 06:35:00,16.7,12.2,30.42,WNW,282,0.0,0.0,82,0.00,,,0.00,Wunderground v.1.15,2013-02-02 11:35:00,
2013-02-02 06:45:00,16.5,12.0,30.42,WNW,282,0.0,0.0,82,0.00,,,0.00,Wunderground v.1.15,2013-02-02 11:45:00,
2013-02-02 06:50:00,16.4,11.9,30.42,WNW,282,0.0,0.0,82,0.00,,,0.00,Wunderground v.1.15,2013-02-02 11:50:00,
2013-02-02 06:55:00,16.3,12.0,30.42,WNW,282,0.0,0.0,83,0.00,,,0.00,Wunderground v.1.15,2013-02-02 11:55:00,
2013-02-02 07:00:00,16.2,11.9,30.42,WNW,282,0.0,0.0,83,0.00,,,0.00,Wunderground v.1.15,2013-02-02 12:00:00,
2013-02-02 07:05:00,16.2,12.2,30.42,WNW,282,0.0,0.0,84,0.00,,,0.00,Wunderground v.1.15,2013-02-02 12:05:00,
2013-02-02 07:15:00,16.1,12.1,30.42,WNW,282,0.0,0.0,84,0.00,,,0.00,Wunderground v.1.15,2013-02-02 12:15:00,
2013-02-02 07:20:00,16.0,12.3,30.43,WNW,282,0.0,0.0,85,0.00,,,0.00,Wunderground v.1.15,2013-02-02 12:20:00,
2013-02-02 07:25:00,16.0,12.3,30.43,WNW,282,0.0,0.0,85,0.00,,,0.00,Wunderground v.1.15,2013-02-02 12:25:00,
2013-02-02 07:30:00,15.9,12.2,30.43,WNW,282,0.0,0.0,85,0.00,,,0.00,Wunderground v.1.15,2013-02-02 12:30:00,
2013-02-02 07:35:00,15.9,12.2,30.43,WNW,282,0.0,0.0,85,0.00,,,0.00,Wunderground v.1.15,2013-02-02 12:35:00,
2013-02-02 07:40:00,15.9,12.5,30.43,WNW,282,0.0,0.0,86,0.00,,,0.00,Wunderground v.1.15,2013-02-02 12:40:00,
2013-02-02 07:45:00,15.9,12.5,30.43,WNW,282,0.0,0.0,86,0.00,,,0.00,Wunderground v.1.15,2013-02-02 12:45:00,
2013-02-02 07:50:00,16.0,12.6,30.43,WNW,282,0.0,0.0,86,0.00,,,0.00,Wunderground v.1.15,2013-02-02 12:50:00,
2013-02-02 07:55:00,16.0,12.6,30.43,WNW,282,0.0,0.0,86,0.00,,,0.00,Wunderground v.1.15,2013-02-02 12:55:00,
2013-02-02 08:00:00,16.1,12.7,30.43,WNW,282,0.0,0.0,86,0.00,,,0.00,Wunderground v.1.15,2013-02-02 13:00:00,
2013-02-02 08:05:00,16.1,12.9,30.43,WNW,282,0.0,0.0,87,0.00,,,0.00,Wunderground v.1.15,2013-02-02 13:05:00,
2013-02-02 08:15:00,16.4,13.2,30.43,WNW,282,0.0,0.0,87,0.00,,,0.00,Wunderground v.1.15,2013-02-02 13:15:00,
2013-02-02 08:25:00,16.9,13.7,30.43,WNW,282,0.0,0.0,87,0.00,,,0.00,Wunderground v.1.15,2013-02-02 13:25:00,
2013-02-02 08:30:00,17.2,13.7,30.43,WNW,282,0.0,0.0,86,0.00,,,0.00,Wunderground v.1.15,2013-02-02 13:30:00,
2013-02-02 08:35:00,17.6,14.1,30.43,WNW,282,0.0,0.0,86,0.00,,,0.00,Wunderground v.1.15,2013-02-02 13:35:00,
2013-02-02 08:40:00,18.2,14.7,30.44,WNW,282,0.0,0.0,86,0.00,,,0.00,Wunderground v.1.15,2013-02-02 13:40:00,
2013-02-02 08:45:00,18.8,15.0,30.43,WNW,282,0.0,0.0,85,0.00,,,0.00,Wunderground v.1.15,2013-02-02 13:45:00,
2013-02-02 08:55:00,20.4,14.9,30.43,WNW,282,0.0,0.0,79,0.00,,,0.00,Wunderground v.1.15,2013-02-02 13:55:00,
2013-02-02 09:00:00,21.2,14.8,30.43,WNW,282,0.0,0.0,76,0.00,,,0.00,Wunderground v.1.15,2013-02-02 14:00:00,
2013-02-02 09:05:00,22.4,14.1,30.43,SSW,209,0.0,0.0,70,0.00,,,0.00,Wunderground v.1.15,2013-02-02 14:05:00,
2013-02-02 09:15:00,23.8,14.1,30.43,SSW,209,0.0,0.0,66,0.00,,,0.00,Wunderground v.1.15,2013-02-02 14:15:00,
2013-02-02 09:20:00,24.1,14.0,30.43,SSW,209,0.0,0.0,65,0.00,,,0.00,Wunderground v.1.15,2013-02-02 14:20:00,
2013-02-02 09:25:00,24.5,14.1,30.43,SSW,209,0.0,0.0,64,0.00,,,0.00,Wunderground v.1.15,2013-02-02 14:25:00,
2013-02-02 09:30:00,25.1,14.3,30.43,SSW,209,0.0,0.0,63,0.00,,,0.00,Wunderground v.1.15,2013-02-02 14:30:00,
2013-02-02 09:40:00,25.8,13.8,30.43,SSW,209,0.0,0.0,60,0.00,,,0.00,Wunderground v.1.15,2013-02-02 14:40:00,
2013-02-02 09:45:00,26.2,14.2,30.43,SSW,203,0.0,2.0,60,0.00,,,0.00,Wunderground v.1.15,2013-02-02 14:45:00,
2013-02-02 09:50:00,26.7,14.3,30.43,SSW,203,0.0,0.0,59,0.00,,,0.00,Wunderground v.1.15,2013-02-02 14:50:00,
2013-02-02 09:55:00,26.9,14.1,30.43,SSW,203,0.0,0.0,58,0.00,,,0.00,Wunderground v.1.15,2013-02-02 14:55:00,
2013-02-02 10:05:00,27.5,13.4,30.42,SSW,201,0.0,1.0,55,0.00,,,0.00,Wunderground v.1.15,2013-02-02 15:05:00,
2013-02-02 10:15:00,28.1,13.1,30.42,West,279,0.0,1.0,53,0.00,,,0.00,Wunderground v.1.15,2013-02-02 15:15:00,
2013-02-02 10:25:00,28.8,13.4,30.42,WSW,246,0.0,0.0,52,0.00,,,0.00,Wunderground v.1.15,2013-02-02 15:25:00,
2013-02-02 10:30:00,29.1,12.8,30.42,SSW,194,1.0,1.0,50,0.00,,,0.00,Wunderground v.1.15,2013-02-02 15:30:00,
2013-02-02 10:35:00,29.2,13.3,30.42,SSE,153,1.0,1.0,51,0.00,,,0.00,Wunderground v.1.15,2013-02-02 15:35:00,
2013-02-02 10:45:00,29.8,13.9,30.41,South,191,0.0,1.0,51,0.00,,,0.00,Wunderground v.1.15,2013-02-02 15:45:00,
2013-02-02 10:50:00,30.4,14.4,30.40,West,281,1.0,1.0,51,0.00,,,0.00,Wunderground v.1.15,2013-02-02 15:50:00,
2013-02-02 10:55:00,30.8,13.9,30.40,South,191,1.0,1.0,49,0.00,,,0.00,Wunderground v.1.15,2013-02-02 15:55:00,
2013-02-02 11:00:00,31.0,14.5,30.40,SW,236,1.0,2.0,50,0.00,,,0.00,Wunderground v.1.15,2013-02-02 16:00:00,
2013-02-02 11:05:00,31.2,13.8,30.39,SW,215,1.0,2.0,48,0.00,,,0.00,Wunderground v.1.15,2013-02-02 16:05:00,
2013-02-02 11:15:00,31.5,13.6,30.39,South,169,1.0,3.0,47,0.00,,,0.00,Wunderground v.1.15,2013-02-02 16:15:00,
2013-02-02 11:20:00,31.7,13.3,30.38,South,190,1.0,1.0,46,0.00,,,0.00,Wunderground v.1.15,2013-02-02 16:20:00,
2013-02-02 11:25:00,32.2,13.7,30.38,SW,236,1.0,1.0,46,0.00,,,0.00,Wunderground v.1.15,2013-02-02 16:25:00,
2013-02-02 11:30:00,32.5,14.5,30.37,NNE,18,1.0,1.0,47,0.00,,,0.00,Wunderground v.1.15,2013-02-02 16:30:00,
2013-02-02 11:35:00,32.8,14.3,30.37,SSE,156,0.0,1.0,46,0.00,,,0.00,Wunderground v.1.15,2013-02-02 16:35:00,
2013-02-02 11:45:00,33.0,13.4,30.36,SSE,161,0.0,0.0,44,0.00,,,0.00,Wunderground v.1.15,2013-02-02 16:45:00,
2013-02-02 11:50:00,33.4,14.3,30.36,SSW,211,0.0,0.0,45,0.00,,,0.00,Wunderground v.1.15,2013-02-02 16:50:00,
2013-02-02 11:55:00,34.2,12.9,30.35,SSE,155,1.0,2.0,41,0.00,,,0.00,Wunderground v.1.15,2013-02-02 16:55:00,
2013-02-02 12:00:00,34.4,14.7,30.35,WNW,288,1.0,1.0,44,0.00,,,0.00,Wunderground v.1.15,2013-02-02 17:00:00,
2013-02-02 12:05:00,34.5,13.2,30.34,South,180,1.0,2.0,41,0.00,,,0.00,Wunderground v.1.15,2013-02-02 17:05:00,
2013-02-02 12:15:00,34.4,13.1,30.33,WSW,253,1.0,1.0,41,0.00,,,0.00,Wunderground v.1.15,2013-02-02 17:15:00,
2013-02-02 12:20:00,34.4,13.1,30.33,SSE,160,1.0,1.0,41,0.00,,,0.00,Wunderground v.1.15,2013-02-02 17:20:00,
2013-02-02 12:25:00,35.3,13.3,30.32,SSE,160,0.0,1.0,40,0.00,,,0.00,Wunderground v.1.15,2013-02-02 17:25:00,
2013-02-02 12:30:00,35.8,13.8,30.32,SSE,160,0.0,0.0,40,0.00,,,0.00,Wunderground v.1.15,2013-02-02 17:30:00,
2013-02-02 12:35:00,36.5,15.6,30.31,SSE,160,0.0,0.0,42,0.00,,,0.00,Wunderground v.1.15,2013-02-02 17:35:00,
2013-02-02 12:40:00,37.1,14.4,30.30,SSE,149,1.0,1.0,39,0.00,,,0.00,Wunderground v.1.15,2013-02-02 17:40:00,
2013-02-02 12:50:00,37.3,14.6,30.29,SSE,159,1.0,3.0,39,0.00,,,0.00,Wunderground v.1.15,2013-02-02 17:50:00,
2013-02-02 12:55:00,37.0,14.3,30.29,South,178,1.0,3.0,39,0.00,,,0.00,Wunderground v.1.15,2013-02-02 17:55:00,
2013-02-02 13:00:00,36.9,14.2,30.28,SE,145,1.0,1.0,39,0.00,,,0.00,Wunderground v.1.15,2013-02-02 18:00:00,
2013-02-02 13:05:00,37.1,13.8,30.28,SSE,161,1.0,1.0,38,0.00,,,0.00,Wunderground v.1.15,2013-02-02 18:05:00,
2013-02-02 13:15:00,38.2,14.8,30.27,South,175,1.0,1.0,38,0.00,,,0.00,Wunderground v.1.15,2013-02-02 18:15:00,
2013-02-02 13:25:00,38.9,15.4,30.26,SSE,161,1.0,1.0,38,0.00,,,0.00,Wunderground v.1.15,2013-02-02 18:25:00,
2013-02-02 13:30:00,39.2,14.4,30.26,West,267,2.0,3.0,36,0.00,,,0.00,Wunderground v.1.15,2013-02-02 18:30:00,
2013-02-02 13:35:00,39.4,14.6,30.26,WNW,286,2.0,3.0,36,0.00,,,0.00,Wunderground v.1.15,2013-02-02 18:35:00,
2013-02-02 13:45:00,39.8,14.3,30.26,SE,126,2.0,2.0,35,0.00,,,0.00,Wunderground v.1.15,2013-02-02 18:45:00,
2013-02-02 13:50:00,39.7,14.2,30.25,SE,142,2.0,2.0,35,0.00,,,0.00,Wunderground v.1.15,2013-02-02 18:50:00,
2013-02-02 13:55:00,40.0,15.8,30.25,SW,235,2.0,2.0,37,0.00,,,0.00,Wunderground v.1.15,2013-02-02 18:55:00,
2013-02-02 14:05:00,40.5,15.6,30.23,SSE,163,2.0,2.0,36,0.00,,,0.00,Wunderground v.1.15,2013-02-02 19:05:00,
2013-02-02 14:15:00,40.6,15.7,30.23,SSW,206,1.0,2.0,36,0.00,,,0.00,Wunderground v.1.15,2013-02-02 19:15:00,
2013-02-02 14:20:00,41.0,14.7,30.23,SE,142,1.0,6.0,34,0.00,,,0.00,Wunderground v.1.15,2013-02-02 19:20:00,
2013-02-02 14:30:00,41.1,14.8,30.22,SSE,157,2.0,2.0,34,0.00,,,0.00,Wunderground v.1.15,2013-02-02 19:30:00,
2013-02-02 14:35:00,41.1,14.8,30.22,SE,128,2.0,4.0,34,0.00,,,0.00,Wunderground v.1.15,2013-02-02 19:35:00,
2013-02-02 14:40:00,41.2,15.6,30.22,SW,226,2.0,3.0,35,0.00,,,0.00,Wunderground v.1.15,2013-02-02 19:40:00,
2013-02-02 14:45:00,41.2,14.9,30.22,SSE,162,2.0,3.0,34,0.00,,,0.00,Wunderground v.1.15,2013-02-02 19:45:00,
2013-02-02 14:50:00,41.2,16.2,30.21,SSE,154,2.0,2.0,36,0.00,,,0.00,Wunderground v.1.15,2013-02-02 19:50:00,
2013-02-02 14:55:00,41.4,15.8,30.21,South,190,2.0,2.0,35,0.00,,,0.00,Wunderground v.1.15,2013-02-02 19:55:00,
2013-02-02 15:05:00,42.0,16.3,30.20,SSW,204,2.0,3.0,35,0.00,,,0.00,Wunderground v.1.15,2013-02-02 20:05:00,
2013-02-02 15:15:00,41.2,15.6,30.20,SSW,204,2.0,3.0,35,0.00,,,0.00,Wunderground v.1.15,2013-02-02 20:15:00,
2013-02-02 15:20:00,41.1,16.1,30.20,SSW,205,1.0,1.0,36,0.00,,,0.00,Wunderground v.1.15,2013-02-02 20:20:00,
2013-02-02 15:25:00,41.1,16.1,30.20,SSE,159,0.0,1.0,36,0.00,,,0.00,Wunderground v.1.15,2013-02-02 20:25:00,
2013-02-02 15:30:00,41.1,15.5,30.20,WSW,248,1.0,1.0,35,0.00,,,0.00,Wunderground v.1.15,2013-02-02 20:30:00,
2013-02-02 15:40:00,40.7,15.8,30.19,SSE,148,0.0,0.0,36,0.00,,,0.00,Wunderground v.1.15,2013-02-02 20:40:00,
2013-02-02 15:45:00,41.1,16.8,30.19,SSE,148,0.0,2.0,37,0.00,,,0.00,Wunderground v.1.15,2013-02-02 20:45:00,
2013-02-02 15:50:00,41.1,16.1,30.19,ESE,107,1.0,1.0,36,0.00,,,0.00,Wunderground v.1.15,2013-02-02 20:50:00,
2013-02-02 15:55:00,41.6,17.2,30.18,SE,142,1.0,1.0,37,0.00,,,0.00,Wunderground v.1.15,2013-02-02 20:55:00,
2013-02-02 16:00:00,42.5,17.4,30.19,SSW,206,0.0,2.0,36,0.00,,,0.00,Wunderground v.1.15,2013-02-02 21:00:00,
2013-02-02 16:05:00,42.8,16.3,30.19,South,171,1.0,2.0,34,0.00,,,0.00,Wunderground v.1.15,2013-02-02 21:05:00,
2013-02-02 16:15:00,41.9,16.9,30.18,SE,145,1.0,2.0,36,0.00,,,0.00,Wunderground v.1.15,2013-02-02 21:15:00,
2013-02-02 16:20:00,41.6,15.9,30.18,SSE,163,1.0,1.0,35,0.00,,,0.00,Wunderground v.1.15,2013-02-02 21:20:00,
2013-02-02 16:25:00,41.4,17.0,30.17,SSE,156,1.0,1.0,37,0.00,,,0.00,Wunderground v.1.15,2013-02-02 21:25:00,
2013-02-02 16:30:00,41.2,16.2,30.17,SW,214,1.0,2.0,36,0.00,,,0.00,Wunderground v.1.15,2013-02-02 21:30:00,
2013-02-02 16:35:00,41.1,16.1,30.18,SSE,162,1.0,2.0,36,0.00,,,0.00,Wunderground v.1.15,2013-02-02 21:35:00,
2013-02-02 16:40:00,41.3,16.3,30.18,SE,146,1.0,1.0,36,0.00,,,0.00,Wunderground v.1.15,2013-02-02 21:40:00,
2013-02-02 16:45:00,41.2,16.2,30.18,SE,146,1.0,2.0,36,0.00,,,0.00,Wunderground v.1.15,2013-02-02 21:45:00,
2013-02-02 16:50:00,41.2,16.9,30.18,SE,146,0.0,0.0,37,0.00,,,0.00,Wunderground v.1.15,2013-02-02 21:50:00,
2013-02-02 16:55:00,41.1,16.1,30.17,SE,146,0.0,0.0,36,0.00,,,0.00,Wunderground v.1.15,2013-02-02 21:55:00,
2013-02-02 17:00:00,41.0,16.7,30.17,SE,146,0.0,0.0,37,0.00,,,0.00,Wunderground v.1.15,2013-02-02 22:00:00,
2013-02-02 17:05:00,40.8,17.1,30.17,SE,146,0.0,0.0,38,0.00,,,0.00,Wunderground v.1.15,2013-02-02 22:05:00,
2013-02-02 17:15:00,40.5,17.5,30.17,SE,146,0.0,0.0,39,0.00,,,0.00,Wunderground v.1.15,2013-02-02 22:15:00,
2013-02-02 17:20:00,40.4,18.0,30.17,SE,146,0.0,0.0,40,0.00,,,0.00,Wunderground v.1.15,2013-02-02 22:20:00,
2013-02-02 17:25:00,40.2,18.3,30.16,SE,146,0.0,0.0,41,0.00,,,0.00,Wunderground v.1.15,2013-02-02 22:25:00,
2013-02-02 17:30:00,40.0,17.6,30.16,SE,146,0.0,0.0,40,0.00,,,0.00,Wunderground v.1.15,2013-02-02 22:30:00,
2013-02-02 17:35:00,39.8,17.4,30.16,SE,146,0.0,0.0,40,0.00,,,0.00,Wunderground v.1.15,2013-02-02 22:35:00,
2013-02-02 17:40:00,39.7,17.3,30.15,SE,146,0.0,0.0,40,0.00,,,0.00,Wunderground v.1.15,2013-02-02 22:40:00,
2013-02-02 17:50:00,39.5,19.4,30.15,SE,146,0.0,0.0,44,0.00,,,0.00,Wunderground v.1.15,2013-02-02 22:50:00,
2013-02-02 17:55:00,39.3,20.2,30.15,SE,146,0.0,0.0,46,0.00,,,0.00,Wunderground v.1.15,2013-02-02 22:55:00,
2013-02-02 18:00:00,39.1,19.5,30.14,SE,146,0.0,0.0,45,0.00,,,0.00,Wunderground v.1.15,2013-02-02 23:00:00,
2013-02-02 18:05:00,38.9,20.4,30.14,SE,146,0.0,0.0,47,0.00,,,0.00,Wunderground v.1.15,2013-02-02 23:05:00,
2013-02-02 18:15:00,38.6,21.1,30.14,SE,146,0.0,0.0,49,0.00,,,0.00,Wunderground v.1.15,2013-02-02 23:15:00,
2013-02-02 18:25:00,38.4,19.9,30.13,SE,146,0.0,0.0,47,0.00,,,0.00,Wunderground v.1.15,2013-02-02 23:25:00,
2013-02-02 18:30:00,38.4,19.4,30.13,SE,146,0.0,0.0,46,0.00,,,0.00,Wunderground v.1.15,2013-02-02 23:30:00,
2013-02-02 18:35:00,38.4,19.4,30.13,SE,146,0.0,0.0,46,0.00,,,0.00,Wunderground v.1.15,2013-02-02 23:35:00,
2013-02-02 18:40:00,38.5,19.5,30.13,SE,146,0.0,0.0,46,0.00,,,0.00,Wunderground v.1.15,2013-02-02 23:40:00,
2013-02-02 18:50:00,38.5,20.5,30.14,West,279,0.0,1.0,48,0.00,,,0.00,Wunderground v.1.15,2013-02-02 23:50:00,
2013-02-02 18:55:00,38.7,19.2,30.14,WNW,284,0.0,1.0,45,0.00,,,0.00,Wunderground v.1.15,2013-02-02 23:55:00,
2013-02-02 19:00:00,39.1,19.5,30.13,SSW,193,0.0,0.0,45,0.00,,,0.00,Wunderground v.1.15,2013-02-03 00:00:00,
2013-02-02 19:05:00,39.5,19.4,30.13,SSW,200,0.0,0.0,44,0.00,,,0.00,Wunderground v.1.15,2013-02-03 00:05:00,
2013-02-02 19:15:00,39.9,20.3,30.12,SSW,200,0.0,0.0,45,0.00,,,0.00,Wunderground v.1.15,2013-02-03 00:15:00,
2013-02-02 19:20:00,39.8,20.2,30.12,SSW,200,0.0,0.0,45,0.00,,,0.00,Wunderground v.1.15,2013-02-03 00:20:00,
2013-02-02 19:30:00,39.7,20.1,30.11,SSW,200,0.0,0.0,45,0.00,,,0.00,Wunderground v.1.15,2013-02-03 00:30:00,
2013-02-02 19:35:00,39.7,20.6,30.12,SSW,200,0.0,0.0,46,0.00,,,0.00,Wunderground v.1.15,2013-02-03 00:35:00,
2013-02-02 19:40:00,39.7,20.6,30.11,SSW,200,0.0,0.0,46,0.00,,,0.00,Wunderground v.1.15,2013-02-03 00:40:00,
2013-02-02 19:45:00,39.7,21.6,30.11,SSW,200,0.0,0.0,48,0.00,,,0.00,Wunderground v.1.15,2013-02-03 00:45:00,
2013-02-02 19:50:00,39.7,22.1,30.11,SSW,200,0.0,0.0,49,0.00,,,0.00,Wunderground v.1.15,2013-02-03 00:50:00,
2013-02-02 19:55:00,39.5,21.4,30.11,SSW,200,0.0,0.0,48,0.00,,,0.00,Wunderground v.1.15,2013-02-03 00:55:00,
2013-02-02 20:05:00,39.6,22.0,30.10,SSW,200,0.0,0.0,49,0.00,,,0.00,Wunderground v.1.15,2013-02-03 01:05:00,
2013-02-02 20:15:00,39.6,20.0,30.09,SSW,200,0.0,0.0,45,0.00,,,0.00,Wunderground v.1.15,2013-02-03 01:15:00,
2013-02-02 20:20:00,39.6,21.5,30.09,SSW,200,0.0,0.0,48,0.00,,,0.00,Wunderground v.1.15,2013-02-03 01:20:00,
2013-02-02 20:25:00,39.5,20.4,30.10,SSW,200,0.0,0.0,46,0.00,,,0.00,Wunderground v.1.15,2013-02-03 01:25:00,
2013-02-02 20:30:00,39.5,19.9,30.09,SSW,200,0.0,0.0,45,0.00,,,0.00,Wunderground v.1.15,2013-02-03 01:30:00,
2013-02-02 20:40:00,39.5,19.9,30.09,SSW,200,0.0,0.0,45,0.00,,,0.00,Wunderground v.1.15,2013-02-03 01:40:00,
2013-02-02 20:45:00,39.6,22.0,30.09,SSW,200,0.0,0.0,49,0.00,,,0.00,Wunderground v.1.15,2013-02-03 01:45:00,
2013-02-02 20:50:00,39.6,21.0,30.08,SSW,200,0.0,0.0,47,0.00,,,0.00,Wunderground v.1.15,2013-02-03 01:50:00,
2013-02-02 20:55:00,39.6,21.5,30.08,SSW,200,0.0,0.0,48,0.00,,,0.00,Wunderground v.1.15,2013-02-03 01:55:00,
2013-02-02 21:00:00,39.6,21.5,30.08,SSW,200,0.0,0.0,48,0.00,,,0.00,Wunderground v.1.15,2013-02-03 02:00:00,
2013-02-02 21:05:00,39.5,21.9,30.08,SSW,200,0.0,0.0,49,0.00,,,0.00,Wunderground v.1.15,2013-02-03 02:05:00,
2013-02-02 21:15:00,39.5,20.4,30.08,SSW,200,0.0,0.0,46,0.00,,,0.00,Wunderground v.1.15,2013-02-03 02:15:00,
2013-02-02 21:20:00,39.6,20.5,30.08,SSW,200,0.0,0.0,46,0.00,,,0.00,Wunderground v.1.15,2013-02-03 02:20:00,
2013-02-02 21:25:00,39.7,21.1,30.08,SSW,200,0.0,0.0,47,0.00,,,0.00,Wunderground v.1.15,2013-02-03 02:25:00,
2013-02-02 21:30:00,39.8,20.2,30.09,SSW,200,0.0,0.0,45,0.00,,,0.00,Wunderground v.1.15,2013-02-03 02:30:00,
2013-02-02 21:35:00,39.9,20.8,30.09,SSW,200,0.0,0.0,46,0.00,,,0.00,Wunderground v.1.15,2013-02-03 02:35:00,
2013-02-02 21:45:00,40.0,22.4,30.09,SSW,200,0.0,0.0,49,0.00,,,0.00,Wunderground v.1.15,2013-02-03 02:45:00,
2013-02-02 21:55:00,40.2,22.5,30.09,SSE,156,0.0,2.0,49,0.00,,,0.00,Wunderground v.1.15,2013-02-03 02:55:00,
2013-02-02 22:00:00,40.4,22.7,30.09,SSE,156,0.0,0.0,49,0.00,,,0.00,Wunderground v.1.15,2013-02-03 03:00:00,
2013-02-02 22:05:00,41.1,25.7,30.08,SSW,209,1.0,1.0,54,0.00,,,0.00,Wunderground v.1.15,2013-02-03 03:05:00,
2013-02-02 22:15:00,41.7,27.1,30.08,SE,130,1.0,5.0,56,0.00,,,0.00,Wunderground v.1.15,2013-02-03 03:15:00,
2013-02-02 22:20:00,42.2,28.0,30.08,SSE,152,1.0,2.0,57,0.00,,,0.00,Wunderground v.1.15,2013-02-03 03:20:00,
2013-02-02 22:25:00,42.5,28.3,30.08,SSE,154,1.0,2.0,57,0.00,,,0.00,Wunderground v.1.15,2013-02-03 03:25:00,
2013-02-02 22:35:00,42.8,29.0,30.08,South,178,0.0,2.0,58,0.00,,,0.00,Wunderground v.1.15,2013-02-03 03:35:00,
2013-02-02 22:40:00,43.2,29.4,30.08,SE,146,1.0,4.0,58,0.00,,,0.00,Wunderground v.1.15,2013-02-03 03:40:00,
2013-02-02 22:45:00,43.5,30.1,30.08,SW,219,2.0,4.0,59,0.00,,,0.00,Wunderground v.1.15,2013-02-03 03:45:00,
2013-02-02 22:55:00,43.8,30.8,30.07,SE,125,2.0,3.0,60,0.00,,,0.00,Wunderground v.1.15,2013-02-03 03:55:00,
2013-02-02 23:00:00,43.9,31.3,30.07,ESE,123,2.0,8.0,61,0.00,,,0.00,Wunderground v.1.15,2013-02-03 04:00:00,
2013-02-02 23:05:00,44.0,31.4,30.07,SSE,149,3.0,8.0,61,0.00,,,0.00,Wunderground v.1.15,2013-02-03 04:05:00,
2013-02-02 23:15:00,43.8,32.4,30.07,SSW,208,3.0,3.0,64,0.00,,,0.00,Wunderground v.1.15,2013-02-03 04:15:00,
2013-02-02 23:20:00,43.6,33.0,30.07,WSW,252,2.0,2.0,66,0.00,,,0.00,Wunderground v.1.15,2013-02-03 04:20:00,
2013-02-02 23:30:00,43.2,33.7,30.07,WSW,238,2.0,2.0,69,0.00,,,0.00,Wunderground v.1.15,2013-02-03 04:30:00,
2013-02-02 23:35:00,43.1,34.0,30.07,SW,215,2.0,7.0,70,0.00,,,0.00,Wunderground v.1.15,2013-02-03 04:35:00,
2013-02-02 23:40:00,43.1,34.3,30.07,ESE,102,2.0,2.0,71,0.00,,,0.00,Wunderground v.1.15,2013-02-03 04:40:00,
2013-02-02 23:45:00,43.0,34.6,30.07,South,174,2.0,2.0,72,0.00,,,0.00,Wunderground v.1.15,2013-02-03 04:45:00,
2013-02-02 23:50:00,42.8,35.1,30.06,ESE,108,2.0,4.0,74,0.00,,,0.00,Wunderground v.1.15,2013-02-03 04:50:00,